sensor_id;sensor_type;location;lat;lon;timestamp;P1;durP1;ratioP1;P2;durP2;ratioP2
39654;SDS011;25336;59.944;11.010;2023-01-28T00:00:03;16.35;;;9.75;;
39654;SDS011;25336;59.944;11.010;2023-01-28T00:02:31;13.77;;;7.88;;
39654;SDS011;25336;59.944;11.010;2023-01-28T00:04:57;13.75;;;9.05;;
39654;SDS011;25336;59.944;11.010;2023-01-28T00:07:22;14.10;;;9.40;;
39654;SDS011;25336;59.944;11.010;2023-01-28T00:09:48;12.57;;;8.57;;
39654;SDS011;25336;59.944;11.010;2023-01-28T00:12:14;14.85;;;9.93;;
39654;SDS011;25336;59.944;11.010;2023-01-28T00:14:40;13.80;;;9.27;;
39654;SDS011;25336;59.944;11.010;2023-01-28T00:17:05;17.50;;;9.88;;
39654;SDS011;25336;59.944;11.010;2023-01-28T00:19:31;13.45;;;8.82;;
39654;SDS011;25336;59.944;11.010;2023-01-28T00:21:56;16.98;;;8.98;;
39654;SDS011;25336;59.944;11.010;2023-01-28T00:24:22;13.45;;;7.90;;
39654;SDS011;25336;59.944;11.010;2023-01-28T00:26:47;14.75;;;9.32;;
39654;SDS011;25336;59.944;11.010;2023-01-28T00:29:13;14.73;;;9.05;;
39654;SDS011;25336;59.944;11.010;2023-01-28T00:31:38;12.77;;;9.02;;
39654;SDS011;25336;59.944;11.010;2023-01-28T00:34:05;18.85;;;9.52;;
39654;SDS011;25336;59.944;11.010;2023-01-28T00:36:31;12.02;;;8.40;;
39654;SDS011;25336;59.944;11.010;2023-01-28T00:38:57;10.70;;;7.65;;
39654;SDS011;25336;59.944;11.010;2023-01-28T00:41:25;12.30;;;7.78;;
39654;SDS011;25336;59.944;11.010;2023-01-28T00:43:51;13.63;;;8.32;;
39654;SDS011;25336;59.944;11.010;2023-01-28T00:46:17;14.02;;;8.02;;
39654;SDS011;25336;59.944;11.010;2023-01-28T00:48:44;13.73;;;8.98;;
39654;SDS011;25336;59.944;11.010;2023-01-28T00:51:11;10.55;;;8.50;;
39654;SDS011;25336;59.944;11.010;2023-01-28T00:53:38;12.18;;;9.68;;
39654;SDS011;25336;59.944;11.010;2023-01-28T00:56:05;12.45;;;9.05;;
39654;SDS011;25336;59.944;11.010;2023-01-28T00:58:32;13.07;;;9.25;;
39654;SDS011;25336;59.944;11.010;2023-01-28T01:01:11;15.02;;;9.07;;
39654;SDS011;25336;59.944;11.010;2023-01-28T01:03:39;13.55;;;10.02;;
39654;SDS011;25336;59.944;11.010;2023-01-28T01:06:05;12.93;;;9.57;;
39654;SDS011;25336;59.944;11.010;2023-01-28T01:08:32;16.38;;;9.52;;
39654;SDS011;25336;59.944;11.010;2023-01-28T01:11:04;15.73;;;10.15;;
39654;SDS011;25336;59.944;11.010;2023-01-28T01:13:31;10.88;;;8.15;;
39654;SDS011;25336;59.944;11.010;2023-01-28T01:16:03;14.38;;;9.88;;
39654;SDS011;25336;59.944;11.010;2023-01-28T01:18:30;14.82;;;9.85;;
39654;SDS011;25336;59.944;11.010;2023-01-28T01:20:58;22.27;;;9.90;;
39654;SDS011;25336;59.944;11.010;2023-01-28T01:23:27;21.63;;;11.10;;
39654;SDS011;25336;59.944;11.010;2023-01-28T01:25:54;20.23;;;10.60;;
39654;SDS011;25336;59.944;11.010;2023-01-28T01:28:20;16.08;;;10.55;;
39654;SDS011;25336;59.944;11.010;2023-01-28T01:30:47;18.33;;;9.52;;
39654;SDS011;25336;59.944;11.010;2023-01-28T01:33:13;14.63;;;10.25;;
39654;SDS011;25336;59.944;11.010;2023-01-28T01:35:40;13.75;;;10.57;;
39654;SDS011;25336;59.944;11.010;2023-01-28T01:38:05;17.70;;;10.48;;
39654;SDS011;25336;59.944;11.010;2023-01-28T01:40:31;14.10;;;10.02;;
39654;SDS011;25336;59.944;11.010;2023-01-28T01:42:57;19.80;;;9.52;;
39654;SDS011;25336;59.944;11.010;2023-01-28T01:45:22;14.90;;;9.63;;
39654;SDS011;25336;59.944;11.010;2023-01-28T01:50:24;13.68;;;10.27;;
39654;SDS011;25336;59.944;11.010;2023-01-28T01:52:53;17.75;;;9.38;;
39654;SDS011;25336;59.944;11.010;2023-01-28T01:55:24;12.43;;;9.85;;
39654;SDS011;25336;59.944;11.010;2023-01-28T01:57:54;14.55;;;10.00;;
39654;SDS011;25336;59.944;11.010;2023-01-28T02:00:22;10.90;;;8.93;;
39654;SDS011;25336;59.944;11.010;2023-01-28T02:02:48;13.57;;;9.30;;
39654;SDS011;25336;59.944;11.010;2023-01-28T02:05:19;14.68;;;9.52;;
39654;SDS011;25336;59.944;11.010;2023-01-28T02:07:47;17.52;;;11.73;;
39654;SDS011;25336;59.944;11.010;2023-01-28T02:10:14;13.45;;;9.20;;
39654;SDS011;25336;59.944;11.010;2023-01-28T02:12:44;14.60;;;9.10;;
39654;SDS011;25336;59.944;11.010;2023-01-28T02:15:16;12.63;;;8.02;;
39654;SDS011;25336;59.944;11.010;2023-01-28T02:17:44;11.80;;;8.23;;
39654;SDS011;25336;59.944;11.010;2023-01-28T02:20:17;11.60;;;8.02;;
39654;SDS011;25336;59.944;11.010;2023-01-28T02:28:16;17.48;;;8.57;;
39654;SDS011;25336;59.944;11.010;2023-01-28T02:33:41;13.70;;;9.68;;
39654;SDS011;25336;59.944;11.010;2023-01-28T02:39:33;13.38;;;8.85;;
39654;SDS011;25336;59.944;11.010;2023-01-28T02:42:10;11.95;;;8.75;;
39654;SDS011;25336;59.944;11.010;2023-01-28T02:44:48;13.18;;;8.80;;
39654;SDS011;25336;59.944;11.010;2023-01-28T02:47:14;11.73;;;7.95;;
39654;SDS011;25336;59.944;11.010;2023-01-28T02:50:00;13.07;;;8.25;;
39654;SDS011;25336;59.944;11.010;2023-01-28T02:53:14;10.93;;;8.10;;
39654;SDS011;25336;59.944;11.010;2023-01-28T02:58:49;10.25;;;7.55;;
39654;SDS011;25336;59.944;11.010;2023-01-28T03:01:18;6.43;;;5.70;;
39654;SDS011;25336;59.944;11.010;2023-01-28T03:03:58;11.23;;;8.07;;
39654;SDS011;25336;59.944;11.010;2023-01-28T03:06:27;12.23;;;8.18;;
39654;SDS011;25336;59.944;11.010;2023-01-28T03:09:00;11.27;;;6.63;;
39654;SDS011;25336;59.944;11.010;2023-01-28T03:11:58;11.65;;;7.18;;
39654;SDS011;25336;59.944;11.010;2023-01-28T03:14:49;6.80;;;6.13;;
39654;SDS011;25336;59.944;11.010;2023-01-28T03:20:51;11.23;;;8.43;;
39654;SDS011;25336;59.944;11.010;2023-01-28T03:23:57;12.35;;;8.20;;
39654;SDS011;25336;59.944;11.010;2023-01-28T03:27:02;12.77;;;9.30;;
39654;SDS011;25336;59.944;11.010;2023-01-28T03:30:03;10.85;;;8.70;;
39654;SDS011;25336;59.944;11.010;2023-01-28T03:32:52;12.88;;;9.60;;
39654;SDS011;25336;59.944;11.010;2023-01-28T03:35:38;16.60;;;9.80;;
39654;SDS011;25336;59.944;11.010;2023-01-28T03:38:22;12.27;;;8.52;;
39654;SDS011;25336;59.944;11.010;2023-01-28T03:41:01;13.52;;;8.88;;
39654;SDS011;25336;59.944;11.010;2023-01-28T03:43:28;12.75;;;8.93;;
39654;SDS011;25336;59.944;11.010;2023-01-28T03:45:54;19.60;;;10.52;;
39654;SDS011;25336;59.944;11.010;2023-01-28T03:48:22;16.52;;;10.02;;
39654;SDS011;25336;59.944;11.010;2023-01-28T03:50:49;13.07;;;10.05;;
39654;SDS011;25336;59.944;11.010;2023-01-28T03:53:15;15.90;;;10.00;;
39654;SDS011;25336;59.944;11.010;2023-01-28T03:55:41;14.88;;;10.65;;
39654;SDS011;25336;59.944;11.010;2023-01-28T03:58:07;9.75;;;7.80;;
39654;SDS011;25336;59.944;11.010;2023-01-28T04:00:33;12.82;;;9.90;;
39654;SDS011;25336;59.944;11.010;2023-01-28T04:03:06;13.82;;;9.07;;
39654;SDS011;25336;59.944;11.010;2023-01-28T04:05:43;15.25;;;8.65;;
39654;SDS011;25336;59.944;11.010;2023-01-28T04:08:10;13.95;;;8.80;;
39654;SDS011;25336;59.944;11.010;2023-01-28T04:10:39;10.02;;;8.15;;
39654;SDS011;25336;59.944;11.010;2023-01-28T04:13:05;13.23;;;9.63;;
39654;SDS011;25336;59.944;11.010;2023-01-28T04:15:31;14.85;;;10.10;;
39654;SDS011;25336;59.944;11.010;2023-01-28T04:17:57;13.13;;;8.90;;
39654;SDS011;25336;59.944;11.010;2023-01-28T04:20:24;10.57;;;8.52;;
39654;SDS011;25336;59.944;11.010;2023-01-28T04:22:49;14.70;;;9.18;;
39654;SDS011;25336;59.944;11.010;2023-01-28T04:25:15;14.07;;;8.93;;
39654;SDS011;25336;59.944;11.010;2023-01-28T04:27:40;13.07;;;9.10;;
39654;SDS011;25336;59.944;11.010;2023-01-28T04:30:06;14.43;;;9.77;;
39654;SDS011;25336;59.944;11.010;2023-01-28T04:32:32;10.40;;;8.70;;
39654;SDS011;25336;59.944;11.010;2023-01-28T04:34:58;14.25;;;9.50;;
39654;SDS011;25336;59.944;11.010;2023-01-28T04:37:23;14.25;;;9.15;;
39654;SDS011;25336;59.944;11.010;2023-01-28T04:39:49;14.32;;;10.65;;
39654;SDS011;25336;59.944;11.010;2023-01-28T04:42:14;17.40;;;10.75;;
39654;SDS011;25336;59.944;11.010;2023-01-28T04:44:40;11.35;;;8.98;;
39654;SDS011;25336;59.944;11.010;2023-01-28T04:47:05;13.95;;;9.52;;
39654;SDS011;25336;59.944;11.010;2023-01-28T04:49:31;13.85;;;10.20;;
39654;SDS011;25336;59.944;11.010;2023-01-28T04:51:56;17.13;;;11.43;;
39654;SDS011;25336;59.944;11.010;2023-01-28T04:54:22;18.00;;;11.77;;
39654;SDS011;25336;59.944;11.010;2023-01-28T04:56:48;19.92;;;12.65;;
39654;SDS011;25336;59.944;11.010;2023-01-28T04:59:13;18.02;;;11.93;;
39654;SDS011;25336;59.944;11.010;2023-01-28T05:01:39;17.13;;;12.30;;
39654;SDS011;25336;59.944;11.010;2023-01-28T05:04:05;15.80;;;12.18;;
39654;SDS011;25336;59.944;11.010;2023-01-28T05:06:31;18.33;;;12.48;;
39654;SDS011;25336;59.944;11.010;2023-01-28T05:08:56;16.92;;;11.32;;
39654;SDS011;25336;59.944;11.010;2023-01-28T05:11:22;15.18;;;10.98;;
39654;SDS011;25336;59.944;11.010;2023-01-28T05:13:49;15.15;;;10.23;;
39654;SDS011;25336;59.944;11.010;2023-01-28T05:16:15;15.15;;;11.25;;
39654;SDS011;25336;59.944;11.010;2023-01-28T05:18:40;18.00;;;10.82;;
39654;SDS011;25336;59.944;11.010;2023-01-28T05:21:06;15.90;;;10.82;;
39654;SDS011;25336;59.944;11.010;2023-01-28T05:23:32;17.10;;;11.25;;
39654;SDS011;25336;59.944;11.010;2023-01-28T05:25:57;17.42;;;11.23;;
39654;SDS011;25336;59.944;11.010;2023-01-28T05:28:23;16.20;;;11.48;;
39654;SDS011;25336;59.944;11.010;2023-01-28T05:30:48;17.33;;;11.18;;
39654;SDS011;25336;59.944;11.010;2023-01-28T05:33:14;16.00;;;11.50;;
39654;SDS011;25336;59.944;11.010;2023-01-28T05:35:40;17.45;;;10.52;;
39654;SDS011;25336;59.944;11.010;2023-01-28T05:38:06;17.50;;;11.68;;
39654;SDS011;25336;59.944;11.010;2023-01-28T05:40:32;16.55;;;10.52;;
39654;SDS011;25336;59.944;11.010;2023-01-28T05:42:57;14.98;;;10.88;;
39654;SDS011;25336;59.944;11.010;2023-01-28T05:45:23;22.15;;;10.38;;
39654;SDS011;25336;59.944;11.010;2023-01-28T05:47:48;13.30;;;10.35;;
39654;SDS011;25336;59.944;11.010;2023-01-28T05:50:14;17.17;;;10.48;;
39654;SDS011;25336;59.944;11.010;2023-01-28T05:52:40;14.68;;;10.52;;
39654;SDS011;25336;59.944;11.010;2023-01-28T05:55:06;17.63;;;10.73;;
39654;SDS011;25336;59.944;11.010;2023-01-28T05:57:32;18.55;;;10.90;;
39654;SDS011;25336;59.944;11.010;2023-01-28T05:59:57;14.95;;;10.32;;
39654;SDS011;25336;59.944;11.010;2023-01-28T06:02:23;16.00;;;10.60;;
39654;SDS011;25336;59.944;11.010;2023-01-28T06:04:48;17.15;;;11.38;;
39654;SDS011;25336;59.944;11.010;2023-01-28T06:07:14;21.80;;;11.07;;
39654;SDS011;25336;59.944;11.010;2023-01-28T06:09:43;18.60;;;11.30;;
39654;SDS011;25336;59.944;11.010;2023-01-28T06:12:09;16.30;;;10.13;;
39654;SDS011;25336;59.944;11.010;2023-01-28T06:14:34;18.30;;;11.25;;
39654;SDS011;25336;59.944;11.010;2023-01-28T06:17:00;18.20;;;11.98;;
39654;SDS011;25336;59.944;11.010;2023-01-28T06:19:25;16.50;;;11.27;;
39654;SDS011;25336;59.944;11.010;2023-01-28T06:21:51;18.63;;;11.73;;
39654;SDS011;25336;59.944;11.010;2023-01-28T06:24:17;19.88;;;12.65;;
39654;SDS011;25336;59.944;11.010;2023-01-28T06:26:44;18.42;;;11.48;;
39654;SDS011;25336;59.944;11.010;2023-01-28T06:29:10;18.98;;;11.38;;
39654;SDS011;25336;59.944;11.010;2023-01-28T06:31:35;13.60;;;10.40;;
39654;SDS011;25336;59.944;11.010;2023-01-28T06:34:01;16.23;;;10.88;;
39654;SDS011;25336;59.944;11.010;2023-01-28T06:36:27;14.75;;;10.30;;
39654;SDS011;25336;59.944;11.010;2023-01-28T06:38:53;17.08;;;11.07;;
39654;SDS011;25336;59.944;11.010;2023-01-28T06:41:18;14.15;;;9.50;;
39654;SDS011;25336;59.944;11.010;2023-01-28T06:43:44;13.82;;;9.70;;
39654;SDS011;25336;59.944;11.010;2023-01-28T06:46:09;12.10;;;8.38;;
39654;SDS011;25336;59.944;11.010;2023-01-28T06:48:35;14.38;;;9.88;;
39654;SDS011;25336;59.944;11.010;2023-01-28T06:51:01;16.38;;;9.45;;
39654;SDS011;25336;59.944;11.010;2023-01-28T06:53:26;15.48;;;9.98;;
39654;SDS011;25336;59.944;11.010;2023-01-28T06:55:52;13.50;;;9.43;;
39654;SDS011;25336;59.944;11.010;2023-01-28T06:58:17;16.10;;;10.25;;
39654;SDS011;25336;59.944;11.010;2023-01-28T07:00:43;11.38;;;8.38;;
39654;SDS011;25336;59.944;11.010;2023-01-28T07:03:09;12.52;;;9.90;;
39654;SDS011;25336;59.944;11.010;2023-01-28T07:05:35;17.88;;;11.30;;
39654;SDS011;25336;59.944;11.010;2023-01-28T07:08:00;15.18;;;10.48;;
39654;SDS011;25336;59.944;11.010;2023-01-28T07:10:26;17.40;;;11.77;;
39654;SDS011;25336;59.944;11.010;2023-01-28T07:12:52;17.77;;;12.00;;
39654;SDS011;25336;59.944;11.010;2023-01-28T07:15:18;20.05;;;12.00;;
39654;SDS011;25336;59.944;11.010;2023-01-28T07:17:43;18.95;;;12.50;;
39654;SDS011;25336;59.944;11.010;2023-01-28T07:20:10;15.98;;;12.23;;
39654;SDS011;25336;59.944;11.010;2023-01-28T07:22:41;16.13;;;11.77;;
39654;SDS011;25336;59.944;11.010;2023-01-28T07:25:08;16.17;;;12.20;;
39654;SDS011;25336;59.944;11.010;2023-01-28T07:27:35;18.20;;;11.80;;
39654;SDS011;25336;59.944;11.010;2023-01-28T07:30:00;17.85;;;11.75;;
39654;SDS011;25336;59.944;11.010;2023-01-28T07:32:26;17.50;;;11.00;;
39654;SDS011;25336;59.944;11.010;2023-01-28T07:34:52;18.50;;;11.30;;
39654;SDS011;25336;59.944;11.010;2023-01-28T07:37:18;18.35;;;11.88;;
39654;SDS011;25336;59.944;11.010;2023-01-28T07:39:44;18.52;;;11.30;;
39654;SDS011;25336;59.944;11.010;2023-01-28T07:42:09;17.48;;;12.05;;
39654;SDS011;25336;59.944;11.010;2023-01-28T07:44:35;17.73;;;11.40;;
39654;SDS011;25336;59.944;11.010;2023-01-28T07:47:02;14.85;;;11.48;;
39654;SDS011;25336;59.944;11.010;2023-01-28T07:49:28;18.55;;;11.68;;
39654;SDS011;25336;59.944;11.010;2023-01-28T07:51:54;20.52;;;13.02;;
39654;SDS011;25336;59.944;11.010;2023-01-28T07:54:19;17.48;;;11.20;;
39654;SDS011;25336;59.944;11.010;2023-01-28T07:56:45;16.80;;;11.77;;
39654;SDS011;25336;59.944;11.010;2023-01-28T07:59:11;16.48;;;11.35;;
39654;SDS011;25336;59.944;11.010;2023-01-28T08:01:36;18.65;;;12.77;;
39654;SDS011;25336;59.944;11.010;2023-01-28T08:04:02;18.73;;;12.13;;
39654;SDS011;25336;59.944;11.010;2023-01-28T08:06:28;21.27;;;13.02;;
39654;SDS011;25336;59.944;11.010;2023-01-28T08:08:53;17.50;;;12.50;;
39654;SDS011;25336;59.944;11.010;2023-01-28T08:11:19;19.65;;;12.65;;
39654;SDS011;25336;59.944;11.010;2023-01-28T08:13:45;19.70;;;12.68;;
39654;SDS011;25336;59.944;11.010;2023-01-28T08:16:12;18.08;;;11.30;;
39654;SDS011;25336;59.944;11.010;2023-01-28T08:18:38;16.70;;;11.50;;
39654;SDS011;25336;59.944;11.010;2023-01-28T08:21:03;17.35;;;12.27;;
39654;SDS011;25336;59.944;11.010;2023-01-28T08:23:29;18.08;;;12.77;;
39654;SDS011;25336;59.944;11.010;2023-01-28T08:25:56;17.92;;;10.60;;
39654;SDS011;25336;59.944;11.010;2023-01-28T08:28:23;15.73;;;11.15;;
39654;SDS011;25336;59.944;11.010;2023-01-28T08:30:49;16.48;;;11.65;;
39654;SDS011;25336;59.944;11.010;2023-01-28T08:33:15;18.13;;;11.07;;
39654;SDS011;25336;59.944;11.010;2023-01-28T08:35:41;15.02;;;9.73;;
39654;SDS011;25336;59.944;11.010;2023-01-28T08:38:07;13.20;;;10.05;;
39654;SDS011;25336;59.944;11.010;2023-01-28T08:40:34;15.00;;;10.05;;
39654;SDS011;25336;59.944;11.010;2023-01-28T08:43:00;14.70;;;9.98;;
39654;SDS011;25336;59.944;11.010;2023-01-28T08:45:27;16.27;;;10.85;;
39654;SDS011;25336;59.944;11.010;2023-01-28T08:50:21;17.90;;;11.30;;
39654;SDS011;25336;59.944;11.010;2023-01-28T08:52:53;16.75;;;12.43;;
39654;SDS011;25336;59.944;11.010;2023-01-28T08:55:20;15.48;;;11.00;;
39654;SDS011;25336;59.944;11.010;2023-01-28T08:57:46;16.73;;;11.02;;
39654;SDS011;25336;59.944;11.010;2023-01-28T09:00:11;21.83;;;11.23;;
39654;SDS011;25336;59.944;11.010;2023-01-28T09:02:37;15.68;;;11.18;;
39654;SDS011;25336;59.944;11.010;2023-01-28T09:05:04;19.92;;;11.43;;
39654;SDS011;25336;59.944;11.010;2023-01-28T09:07:30;15.75;;;12.25;;
39654;SDS011;25336;59.944;11.010;2023-01-28T09:09:56;18.45;;;12.75;;
39654;SDS011;25336;59.944;11.010;2023-01-28T09:12:22;19.23;;;12.60;;
39654;SDS011;25336;59.944;11.010;2023-01-28T09:14:47;26.42;;;16.35;;
39654;SDS011;25336;59.944;11.010;2023-01-28T09:17:13;17.45;;;11.68;;
39654;SDS011;25336;59.944;11.010;2023-01-28T09:19:39;18.02;;;11.80;;
39654;SDS011;25336;59.944;11.010;2023-01-28T09:22:04;22.33;;;11.77;;
39654;SDS011;25336;59.944;11.010;2023-01-28T09:24:30;20.95;;;11.02;;
39654;SDS011;25336;59.944;11.010;2023-01-28T09:26:56;19.83;;;11.65;;
39654;SDS011;25336;59.944;11.010;2023-01-28T09:29:21;18.83;;;11.88;;
39654;SDS011;25336;59.944;11.010;2023-01-28T09:31:47;18.77;;;12.20;;
39654;SDS011;25336;59.944;11.010;2023-01-28T09:34:12;21.88;;;12.10;;
39654;SDS011;25336;59.944;11.010;2023-01-28T09:36:38;16.92;;;11.48;;
39654;SDS011;25336;59.944;11.010;2023-01-28T09:39:04;17.08;;;10.68;;
39654;SDS011;25336;59.944;11.010;2023-01-28T09:44:33;14.43;;;9.05;;
39654;SDS011;25336;59.944;11.010;2023-01-28T09:47:21;14.23;;;9.23;;
39654;SDS011;25336;59.944;11.010;2023-01-28T09:49:57;20.20;;;11.43;;
39654;SDS011;25336;59.944;11.010;2023-01-28T09:52:25;18.88;;;9.85;;
39654;SDS011;25336;59.944;11.010;2023-01-28T09:54:55;14.30;;;9.73;;
39654;SDS011;25336;59.944;11.010;2023-01-28T09:57:36;14.70;;;10.85;;
39654;SDS011;25336;59.944;11.010;2023-01-28T10:00:12;45.55;;;24.73;;
39654;SDS011;25336;59.944;11.010;2023-01-28T10:05:27;17.75;;;11.88;;
39654;SDS011;25336;59.944;11.010;2023-01-28T10:08:18;17.88;;;12.20;;
39654;SDS011;25336;59.944;11.010;2023-01-28T10:19:11;10.02;;;7.47;;
39654;SDS011;25336;59.944;11.010;2023-01-28T10:21:56;12.95;;;8.32;;
39654;SDS011;25336;59.944;11.010;2023-01-28T10:24:47;12.90;;;8.38;;
39654;SDS011;25336;59.944;11.010;2023-01-28T10:27:31;12.40;;;8.40;;
39654;SDS011;25336;59.944;11.010;2023-01-28T10:29:59;12.25;;;8.38;;
39654;SDS011;25336;59.944;11.010;2023-01-28T10:32:34;14.27;;;9.32;;
39654;SDS011;25336;59.944;11.010;2023-01-28T10:35:07;19.52;;;10.32;;
39654;SDS011;25336;59.944;11.010;2023-01-28T10:37:33;19.08;;;11.20;;
39654;SDS011;25336;59.944;11.010;2023-01-28T10:40:00;19.20;;;10.02;;
39654;SDS011;25336;59.944;11.010;2023-01-28T10:44:56;18.05;;;11.07;;
39654;SDS011;25336;59.944;11.010;2023-01-28T10:47:30;19.05;;;11.70;;
39654;SDS011;25336;59.944;11.010;2023-01-28T10:50:03;15.88;;;10.15;;
39654;SDS011;25336;59.944;11.010;2023-01-28T10:52:29;18.75;;;11.40;;
39654;SDS011;25336;59.944;11.010;2023-01-28T10:54:59;20.55;;;12.27;;
39654;SDS011;25336;59.944;11.010;2023-01-28T10:57:26;15.55;;;10.70;;
39654;SDS011;25336;59.944;11.010;2023-01-28T10:59:52;16.60;;;11.10;;
39654;SDS011;25336;59.944;11.010;2023-01-28T11:02:23;18.02;;;12.07;;
39654;SDS011;25336;59.944;11.010;2023-01-28T11:07:42;16.75;;;11.63;;
39654;SDS011;25336;59.944;11.010;2023-01-28T11:13:17;20.73;;;12.65;;
39654;SDS011;25336;59.944;11.010;2023-01-28T11:15:48;18.80;;;11.50;;
39654;SDS011;25336;59.944;11.010;2023-01-28T11:18:26;20.85;;;12.40;;
39654;SDS011;25336;59.944;11.010;2023-01-28T11:20:57;15.70;;;11.10;;
39654;SDS011;25336;59.944;11.010;2023-01-28T11:23:44;14.98;;;10.48;;
39654;SDS011;25336;59.944;11.010;2023-01-28T11:26:18;16.77;;;9.95;;
39654;SDS011;25336;59.944;11.010;2023-01-28T11:28:47;12.60;;;9.05;;
39654;SDS011;25336;59.944;11.010;2023-01-28T11:31:14;16.52;;;9.45;;
39654;SDS011;25336;59.944;11.010;2023-01-28T11:33:46;11.73;;;8.65;;
39654;SDS011;25336;59.944;11.010;2023-01-28T11:38:53;12.55;;;8.85;;
39654;SDS011;25336;59.944;11.010;2023-01-28T11:44:22;12.75;;;9.45;;
39654;SDS011;25336;59.944;11.010;2023-01-28T11:49:45;19.48;;;11.50;;
39654;SDS011;25336;59.944;11.010;2023-01-28T11:53:17;23.10;;;13.63;;
39654;SDS011;25336;59.944;11.010;2023-01-28T11:58:32;22.88;;;12.02;;
39654;SDS011;25336;59.944;11.010;2023-01-28T12:04:18;17.77;;;11.10;;
39654;SDS011;25336;59.944;11.010;2023-01-28T12:10:02;14.23;;;9.55;;
39654;SDS011;25336;59.944;11.010;2023-01-28T12:15:43;16.75;;;10.88;;
39654;SDS011;25336;59.944;11.010;2023-01-28T12:21:05;13.13;;;9.75;;
39654;SDS011;25336;59.944;11.010;2023-01-28T12:23:47;14.63;;;9.68;;
39654;SDS011;25336;59.944;11.010;2023-01-28T12:34:47;14.45;;;8.88;;
39654;SDS011;25336;59.944;11.010;2023-01-28T12:39:58;14.65;;;10.48;;
39654;SDS011;25336;59.944;11.010;2023-01-28T12:45:31;14.40;;;9.13;;
39654;SDS011;25336;59.944;11.010;2023-01-28T12:48:12;13.88;;;9.38;;
39654;SDS011;25336;59.944;11.010;2023-01-28T12:56:04;26.85;;;11.85;;
39654;SDS011;25336;59.944;11.010;2023-01-28T13:01:25;22.65;;;12.15;;
39654;SDS011;25336;59.944;11.010;2023-01-28T13:04:11;16.90;;;9.63;;
39654;SDS011;25336;59.944;11.010;2023-01-28T13:06:43;13.68;;;8.60;;
39654;SDS011;25336;59.944;11.010;2023-01-28T13:09:15;14.55;;;9.48;;
39654;SDS011;25336;59.944;11.010;2023-01-28T13:11:44;18.33;;;10.07;;
39654;SDS011;25336;59.944;11.010;2023-01-28T13:14:12;28.23;;;10.43;;
39654;SDS011;25336;59.944;11.010;2023-01-28T13:16:38;13.00;;;9.13;;
39654;SDS011;25336;59.944;11.010;2023-01-28T13:19:06;16.00;;;9.55;;
39654;SDS011;25336;59.944;11.010;2023-01-28T13:21:33;11.40;;;8.18;;
39654;SDS011;25336;59.944;11.010;2023-01-28T13:26:30;18.75;;;10.13;;
39654;SDS011;25336;59.944;11.010;2023-01-28T13:31:44;14.38;;;9.45;;
39654;SDS011;25336;59.944;11.010;2023-01-28T13:34:25;15.23;;;10.20;;
39654;SDS011;25336;59.944;11.010;2023-01-28T13:36:51;16.80;;;11.48;;
39654;SDS011;25336;59.944;11.010;2023-01-28T13:39:19;21.55;;;11.25;;
39654;SDS011;25336;59.944;11.010;2023-01-28T13:41:47;17.00;;;10.88;;
39654;SDS011;25336;59.944;11.010;2023-01-28T13:44:18;18.48;;;11.68;;
39654;SDS011;25336;59.944;11.010;2023-01-28T13:46:50;19.50;;;10.40;;
39654;SDS011;25336;59.944;11.010;2023-01-28T13:49:18;16.23;;;10.68;;
39654;SDS011;25336;59.944;11.010;2023-01-28T13:54:35;17.27;;;11.10;;
39654;SDS011;25336;59.944;11.010;2023-01-28T13:57:09;29.90;;;15.38;;
39654;SDS011;25336;59.944;11.010;2023-01-28T14:00:07;30.27;;;16.13;;
39654;SDS011;25336;59.944;11.010;2023-01-28T14:11:07;28.95;;;15.13;;
39654;SDS011;25336;59.944;11.010;2023-01-28T14:13:40;24.73;;;14.52;;
39654;SDS011;25336;59.944;11.010;2023-01-28T14:16:39;17.40;;;9.63;;
39654;SDS011;25336;59.944;11.010;2023-01-28T14:19:16;18.02;;;9.38;;
39654;SDS011;25336;59.944;11.010;2023-01-28T14:21:48;15.63;;;9.55;;
39654;SDS011;25336;59.944;11.010;2023-01-28T14:24:15;18.15;;;11.25;;
39654;SDS011;25336;59.944;11.010;2023-01-28T14:27:02;17.10;;;11.20;;
39654;SDS011;25336;59.944;11.010;2023-01-28T14:29:57;22.30;;;12.80;;
39654;SDS011;25336;59.944;11.010;2023-01-28T14:32:28;16.73;;;11.05;;
39654;SDS011;25336;59.944;11.010;2023-01-28T14:34:59;17.88;;;10.95;;
39654;SDS011;25336;59.944;11.010;2023-01-28T14:37:30;18.90;;;11.90;;
39654;SDS011;25336;59.944;11.010;2023-01-28T14:39:57;16.35;;;10.85;;
39654;SDS011;25336;59.944;11.010;2023-01-28T14:42:34;14.48;;;10.32;;
39654;SDS011;25336;59.944;11.010;2023-01-28T14:47:53;19.15;;;11.13;;
39654;SDS011;25336;59.944;11.010;2023-01-28T14:53:36;14.38;;;10.68;;
39654;SDS011;25336;59.944;11.010;2023-01-28T14:58:53;19.27;;;11.73;;
39654;SDS011;25336;59.944;11.010;2023-01-28T15:01:27;22.33;;;11.95;;
39654;SDS011;25336;59.944;11.010;2023-01-28T15:03:54;17.95;;;10.88;;
39654;SDS011;25336;59.944;11.010;2023-01-28T15:06:22;21.25;;;13.68;;
39654;SDS011;25336;59.944;11.010;2023-01-28T15:08:50;25.02;;;15.07;;
39654;SDS011;25336;59.944;11.010;2023-01-28T15:11:17;28.05;;;15.57;;
39654;SDS011;25336;59.944;11.010;2023-01-28T15:13:47;29.77;;;18.02;;
39654;SDS011;25336;59.944;11.010;2023-01-28T15:16:15;51.67;;;28.25;;
39654;SDS011;25336;59.944;11.010;2023-01-28T15:18:44;60.85;;;30.73;;
39654;SDS011;25336;59.944;11.010;2023-01-28T15:21:10;55.53;;;29.25;;
39654;SDS011;25336;59.944;11.010;2023-01-28T15:23:38;54.97;;;30.40;;
39654;SDS011;25336;59.944;11.010;2023-01-28T15:26:06;48.75;;;24.55;;
39654;SDS011;25336;59.944;11.010;2023-01-28T15:28:38;30.17;;;18.67;;
39654;SDS011;25336;59.944;11.010;2023-01-28T15:31:04;45.67;;;24.02;;
39654;SDS011;25336;59.944;11.010;2023-01-28T15:33:30;30.83;;;16.73;;
39654;SDS011;25336;59.944;11.010;2023-01-28T15:35:56;26.58;;;15.90;;
39654;SDS011;25336;59.944;11.010;2023-01-28T15:38:24;25.20;;;13.77;;
39654;SDS011;25336;59.944;11.010;2023-01-28T15:43:29;20.92;;;13.43;;
39654;SDS011;25336;59.944;11.010;2023-01-28T15:46:00;33.20;;;18.98;;
39654;SDS011;25336;59.944;11.010;2023-01-28T15:48:28;33.25;;;19.33;;
39654;SDS011;25336;59.944;11.010;2023-01-28T15:50:59;26.27;;;16.25;;
39654;SDS011;25336;59.944;11.010;2023-01-28T15:53:46;19.80;;;12.45;;
39654;SDS011;25336;59.944;11.010;2023-01-28T15:56:15;16.48;;;11.02;;
39654;SDS011;25336;59.944;11.010;2023-01-28T15:58:49;16.20;;;10.38;;
39654;SDS011;25336;59.944;11.010;2023-01-28T16:01:15;16.75;;;9.35;;
39654;SDS011;25336;59.944;11.010;2023-01-28T16:03:44;13.90;;;9.00;;
39654;SDS011;25336;59.944;11.010;2023-01-28T16:06:13;14.00;;;9.98;;
39654;SDS011;25336;59.944;11.010;2023-01-28T16:11:26;13.50;;;8.65;;
39654;SDS011;25336;59.944;11.010;2023-01-28T16:14:16;14.05;;;9.00;;
39654;SDS011;25336;59.944;11.010;2023-01-28T16:16:58;14.93;;;9.18;;
39654;SDS011;25336;59.944;11.010;2023-01-28T16:19:36;10.85;;;8.18;;
39654;SDS011;25336;59.944;11.010;2023-01-28T16:22:04;14.07;;;9.10;;
39654;SDS011;25336;59.944;11.010;2023-01-28T16:24:31;25.98;;;11.40;;
39654;SDS011;25336;59.944;11.010;2023-01-28T16:27:01;17.42;;;10.60;;
39654;SDS011;25336;59.944;11.010;2023-01-28T16:29:28;15.60;;;9.25;;